Time;durP1;ratioP1;P1;durP2;ratioP2;P2;SDS_P1;SDS_P2;PMS_P1;PMS_P2;Temp;Humidity;BMP_temperature;BMP_pressure;BME280_temperature;BME280_humidity;BME280_pressure;Samples;Min_cycle;Max_cycle;Signal;HPM_P1;HPM_P2
2022/09/17 00:01:16;;;;;;;10.93;1.10;;;13.00;99.90;;;;;;5003452;28;24826;-73
2022/09/17 00:03:42;;;;;;;5.53;0.93;;;13.00;99.90;;;;;;5013373;28;25068;-74
2022/09/17 00:06:10;;;;;;;9.88;1.65;;;12.80;99.90;;;;;;5003770;28;25059;-75
2022/09/17 00:08:39;;;;;;;3.17;1.08;;;12.70;99.90;;;;;;5013294;28;25071;-76
2022/09/17 00:11:09;;;;;;;8.68;1.42;;;12.70;99.90;;;;;;5011369;28;25073;-74
2022/09/17 00:13:34;;;;;;;4.72;0.95;;;12.70;99.90;;;;;;4989506;28;25064;-74
2022/09/17 00:16:00;;;;;;;5.25;1.23;;;12.60;99.90;;;;;;5005890;28;25106;-74
2022/09/17 00:18:26;;;;;;;11.98;1.75;;;12.70;99.90;;;;;;4999175;28;25089;-76
2022/09/17 00:20:52;;;;;;;11.52;2.03;;;12.70;99.90;;;;;;4980104;28;25078;-75
2022/09/17 00:23:17;;;;;;;6.90;1.33;;;12.60;99.90;;;;;;4976874;28;25099;-77
2022/09/17 00:25:44;;;;;;;6.72;2.08;;;12.70;99.90;;;;;;4994819;28;25080;-77
2022/09/17 00:28:12;;;;;;;10.20;1.52;;;12.80;99.90;;;;;;4974538;28;25070;-76
2022/09/17 00:30:43;;;;;;;4.72;1.20;;;12.80;99.90;;;;;;4992530;28;25096;-75
2022/09/17 00:33:14;;;;;;;8.15;1.58;;;12.90;99.90;;;;;;4993557;28;25084;-75
2022/09/17 00:35:40;;;;;;;6.55;1.13;;;12.90;99.90;;;;;;4991060;28;25152;-75
2022/09/17 00:38:05;;;;;;;9.95;1.67;;;13.00;99.90;;;;;;4991398;28;25171;-76
2022/09/17 00:40:31;;;;;;;7.63;1.33;;;12.90;99.90;;;;;;4991271;28;25096;-75
2022/09/17 00:42:57;;;;;;;9.20;1.45;;;12.90;99.90;;;;;;5003168;28;25158;-74
2022/09/17 00:45:23;;;;;;;5.88;1.20;;;12.90;99.90;;;;;;4997563;28;25072;-75
2022/09/17 00:48:04;;;;;;;11.80;1.83;;;12.80;99.90;;;;;;4999995;28;25092;-75
2022/09/17 00:50:35;;;;;;;7.32;1.45;;;12.70;99.90;;;;;;4970617;28;25141;-74
2022/09/17 00:53:05;;;;;;;11.63;2.45;;;12.70;99.90;;;;;;4993539;28;25060;-75
2022/09/17 00:56:06;;;;;;;4.35;1.10;;;12.70;99.90;;;;;;4995191;28;25139;-75
2022/09/17 00:58:34;;;;;;;8.27;2.25;;;12.70;99.90;;;;;;4964445;28;25070;-73
2022/09/17 01:00:59;;;;;;;6.65;1.42;;;12.60;99.90;;;;;;4994385;28;25090;-75
2022/09/17 01:03:25;;;;;;;8.80;1.58;;;12.50;99.90;;;;;;4993882;28;25104;-76
2022/09/17 01:06:00;;;;;;;6.45;1.23;;;12.40;99.90;;;;;;4990390;28;25152;-77
2022/09/17 01:08:53;;;;;;;8.93;2.30;;;12.40;99.90;;;;;;4992956;28;25079;-76
2022/09/17 01:11:33;;;;;;;7.60;1.45;;;12.40;99.90;;;;;;4989287;28;25066;-76
2022/09/17 01:14:13;;;;;;;5.78;1.05;;;12.40;99.90;;;;;;4994372;28;25132;-75
2022/09/17 01:17:04;;;;;;;8.70;1.10;;;12.30;99.90;;;;;;4992831;28;25094;-75
2022/09/17 01:19:54;;;;;;;6.15;1.30;;;12.30;99.90;;;;;;4999276;28;25075;-76
2022/09/17 01:22:52;;;;;;;10.30;1.27;;;12.30;99.90;;;;;;4993800;28;25062;-75
2022/09/17 01:25:25;;;;;;;5.95;1.42;;;12.30;99.90;;;;;;4982636;28;25146;-76
2022/09/17 01:28:28;;;;;;;5.40;1.00;;;12.30;99.90;;;;;;4994131;28;25050;-76
2022/09/17 01:31:23;;;;;;;11.98;1.33;;;12.30;99.90;;;;;;4994300;28;25052;-76
2022/09/17 01:34:10;;;;;;;4.13;0.90;;;12.30;99.90;;;;;;4931044;28;25092;-76
2022/09/17 01:36:45;;;;;;;3.28;0.70;;;12.40;99.90;;;;;;4998420;28;25058;-75
2022/09/17 01:39:34;;;;;;;11.02;0.95;;;12.40;99.90;;;;;;4997335;28;25074;-75
2022/09/17 01:42:06;;;;;;;5.63;1.10;;;12.30;99.90;;;;;;4987831;28;25067;-76
2022/09/17 01:45:00;;;;;;;10.95;1.70;;;12.40;99.90;;;;;;4997448;28;25058;-75
2022/09/17 01:47:30;;;;;;;6.10;1.05;;;12.40;99.90;;;;;;4995277;28;25151;-76
2022/09/17 01:50:01;;;;;;;5.63;1.25;;;12.30;99.90;;;;;;5001349;28;25053;-76
2022/09/17 01:52:30;;;;;;;6.82;2.28;;;12.40;99.90;;;;;;4987310;28;25086;-77
2022/09/17 01:55:00;;;;;;;8.48;1.23;;;12.30;99.90;;;;;;4991798;28;25100;-78
2022/09/17 01:57:34;;;;;;;7.28;1.20;;;12.30;99.90;;;;;;5003306;28;25079;-77
2022/09/17 02:00:06;;;;;;;7.00;1.15;;;12.40;99.90;;;;;;4997482;28;25086;-77
2022/09/17 02:02:37;;;;;;;7.40;1.42;;;12.50;99.90;;;;;;5003948;28;25059;-76
2022/09/17 02:05:11;;;;;;;8.70;1.98;;;12.60;99.90;;;;;;5005545;28;25052;-77
2022/09/17 02:07:52;;;;;;;8.35;1.08;;;12.70;99.90;;;;;;5002972;28;25068;-76
2022/09/17 02:10:21;;;;;;;7.07;1.30;;;12.70;99.90;;;;;;5003710;28;25055;-75
2022/09/17 02:13:00;;;;;;;8.90;1.58;;;12.60;99.90;;;;;;5005809;28;25142;-76
2022/09/17 02:15:32;;;;;;;6.20;1.00;;;12.60;99.90;;;;;;5006666;28;25065;-77
2022/09/17 02:18:25;;;;;;;9.27;1.42;;;12.60;99.90;;;;;;5002661;28;25063;-76
2022/09/17 02:21:40;;;;;;;8.27;1.15;;;12.60;99.90;;;;;;5007835;28;25057;-76
2022/09/17 02:24:18;;;;;;;6.38;1.55;;;12.50;99.90;;;;;;4940672;28;25079;-76
2022/09/17 02:27:04;;;;;;;11.10;2.05;;;12.60;99.90;;;;;;5010013;28;25056;-76
2022/09/17 02:29:34;;;;;;;3.15;1.02;;;12.50;99.90;;;;;;5000152;28;25104;-76
2022/09/17 02:32:00;;;;;;;7.80;1.30;;;12.50;99.90;;;;;;5001124;28;25058;-75
2022/09/17 02:34:28;;;;;;;9.88;1.35;;;12.50;99.90;;;;;;5009151;28;25055;-77
2022/09/17 02:36:55;;;;;;;10.65;1.35;;;12.40;99.90;;;;;;5001531;28;25083;-76
2022/09/17 02:39:20;;;;;;;18.50;1.83;;;12.50;99.90;;;;;;4998284;28;25117;-76
2022/09/17 02:42:03;;;;;;;9.60;1.80;;;12.30;99.90;;;;;;5002736;28;25100;-76
2022/09/17 02:45:07;;;;;;;8.82;1.83;;;12.40;99.90;;;;;;5002274;28;25191;-75
2022/09/17 02:48:08;;;;;;;5.78;1.40;;;12.40;99.90;;;;;;4999794;28;25136;-76
2022/09/17 02:51:02;;;;;;;6.30;1.88;;;12.50;99.90;;;;;;4985174;28;25093;-76
2022/09/17 02:53:43;;;;;;;8.70;2.15;;;12.50;99.90;;;;;;4994163;28;25081;-76
2022/09/17 02:56:28;;;;;;;10.02;2.47;;;12.60;99.90;;;;;;4994244;28;25078;-76
2022/09/17 02:59:20;;;;;;;7.65;1.27;;;12.60;99.90;;;;;;5002222;28;25075;-75
2022/09/17 03:01:57;;;;;;;10.70;1.92;;;12.60;99.90;;;;;;5001745;28;25162;-77
2022/09/17 03:04:24;;;;;;;10.27;2.03;;;12.70;99.90;;;;;;4990533;28;25069;-76
2022/09/17 03:06:51;;;;;;;11.80;1.27;;;12.60;99.90;;;;;;5003137;28;25157;-76
2022/09/17 03:09:16;;;;;;;13.35;2.20;;;12.60;99.90;;;;;;5000526;28;25092;-76
2022/09/17 03:11:42;;;;;;;11.65;1.85;;;12.60;99.90;;;;;;4982552;28;25094;-75
2022/09/17 03:14:07;;;;;;;7.30;1.67;;;12.50;99.90;;;;;;4992941;28;25076;-76
2022/09/17 03:16:33;;;;;;;13.30;1.55;;;12.40;99.90;;;;;;4992185;28;25110;-75
2022/09/17 03:18:58;;;;;;;9.20;1.92;;;12.30;99.90;;;;;;4996562;28;25079;-74
2022/09/17 03:21:25;;;;;;;8.07;2.28;;;12.10;99.90;;;;;;4988463;28;25081;-75
2022/09/17 03:23:51;;;;;;;15.07;1.73;;;12.10;99.90;;;;;;4980758;28;25080;-76
2022/09/17 03:26:17;;;;;;;10.45;1.20;;;12.00;99.90;;;;;;4991010;28;25139;-75
2022/09/17 03:28:42;;;;;;;13.40;1.80;;;11.90;99.90;;;;;;4991708;28;25144;-75
2022/09/17 03:31:08;;;;;;;10.60;1.52;;;11.90;99.90;;;;;;5000070;28;25096;-76
2022/09/17 03:33:33;;;;;;;9.45;1.13;;;11.90;99.90;;;;;;5000091;28;25068;-76
2022/09/17 03:35:59;;;;;;;4.25;0.80;;;11.80;99.90;;;;;;4999383;28;25057;-77
2022/09/17 03:38:25;;;;;;;7.88;1.30;;;11.70;99.90;;;;;;4996468;28;25075;-77
2022/09/17 03:41:02;;;;;;;4.93;0.90;;;11.70;99.90;;;;;;5006167;28;25154;-77
2022/09/17 03:43:28;;;;;;;9.43;1.20;;;11.70;99.90;;;;;;4998664;28;25089;-76
2022/09/17 03:45:54;;;;;;;8.25;1.40;;;11.70;99.90;;;;;;4996389;28;25076;-76
2022/09/17 03:48:20;;;;;;;11.73;1.60;;;11.70;99.90;;;;;;4999003;28;25081;-77
2022/09/17 03:50:46;;;;;;;9.23;1.70;;;11.80;99.90;;;;;;4987897;28;25107;-77
2022/09/17 03:53:11;;;;;;;6.35;2.03;;;11.70;99.90;;;;;;5004286;28;25084;-76
2022/09/17 03:55:38;;;;;;;8.45;1.40;;;11.80;99.90;;;;;;5009149;28;25087;-75
2022/09/17 03:58:04;;;;;;;8.65;1.60;;;11.80;99.90;;;;;;5000400;28;25069;-76
2022/09/17 04:00:30;;;;;;;13.68;1.55;;;11.80;99.90;;;;;;4992547;28;25070;-76
2022/09/17 04:02:55;;;;;;;7.60;1.20;;;11.80;99.90;;;;;;4977984;28;25134;-75
2022/09/17 04:05:21;;;;;;;9.80;1.65;;;11.80;99.90;;;;;;4988286;28;25079;-75
2022/09/17 04:07:46;;;;;;;10.65;1.40;;;11.90;99.90;;;;;;4998293;28;25136;-73
2022/09/17 04:10:12;;;;;;;9.93;1.75;;;11.80;99.90;;;;;;4997804;28;25089;-75
2022/09/17 04:12:38;;;;;;;7.38;1.10;;;11.80;99.90;;;;;;5000513;28;25073;-75
2022/09/17 04:15:04;;;;;;;9.65;1.17;;;11.90;99.90;;;;;;4992819;28;25049;-75
2022/09/17 04:17:30;;;;;;;8.15;1.70;;;11.80;99.90;;;;;;5003645;28;25139;-75
2022/09/17 04:19:55;;;;;;;6.43;1.35;;;11.90;99.90;;;;;;4994350;28;25074;-76
2022/09/17 04:22:21;;;;;;;7.10;1.20;;;11.90;99.90;;;;;;4980420;28;25149;-76
2022/09/17 04:24:46;;;;;;;6.82;1.33;;;11.90;99.90;;;;;;4999790;28;25076;-75
2022/09/17 04:27:12;;;;;;;7.28;1.25;;;12.00;99.90;;;;;;5004395;28;25052;-75
2022/09/17 04:29:37;;;;;;;8.52;2.55;;;12.00;99.90;;;;;;5000254;28;25061;-75
2022/09/17 04:32:03;;;;;;;6.30;1.40;;;12.10;99.90;;;;;;5001855;28;25106;-76
2022/09/17 04:34:29;;;;;;;9.32;1.45;;;12.20;99.90;;;;;;5005878;28;25066;-76
2022/09/17 04:36:55;;;;;;;12.20;1.70;;;12.20;99.90;;;;;;4996944;28;25059;-77
2022/09/17 04:39:20;;;;;;;8.65;1.10;;;12.00;99.90;;;;;;5003462;28;25057;-75
2022/09/17 04:41:46;;;;;;;9.95;1.45;;;12.00;99.90;;;;;;5005013;28;25214;-75
2022/09/17 04:44:12;;;;;;;8.05;0.90;;;12.00;99.90;;;;;;5002284;28;25057;-76
2022/09/17 04:46:37;;;;;;;5.15;1.60;;;12.00;99.90;;;;;;4999337;28;25142;-76
2022/09/17 04:49:03;;;;;;;10.35;1.33;;;12.00;99.90;;;;;;5000081;28;25074;-75
2022/09/17 04:51:28;;;;;;;6.25;1.73;;;12.10;99.90;;;;;;5008388;28;25086;-76
2022/09/17 04:53:54;;;;;;;8.50;1.50;;;12.10;99.90;;;;;;5003775;28;25055;-76
2022/09/17 04:56:19;;;;;;;5.40;1.10;;;12.20;99.90;;;;;;4994437;28;25064;-76
2022/09/17 04:58:45;;;;;;;6.20;1.88;;;12.20;99.90;;;;;;4995208;28;25068;-77
2022/09/17 05:01:12;;;;;;;14.02;1.67;;;12.20;99.90;;;;;;5001601;28;25107;-76
2022/09/17 05:03:38;;;;;;;10.48;1.80;;;12.20;99.90;;;;;;5001185;28;25135;-75
2022/09/17 05:06:04;;;;;;;9.57;1.60;;;12.20;99.90;;;;;;5002499;28;25075;-76
2022/09/17 05:08:29;;;;;;;9.40;2.78;;;12.10;99.90;;;;;;4991497;28;25059;-75
2022/09/17 05:10:55;;;;;;;7.88;1.63;;;12.00;99.90;;;;;;4995028;28;25144;-75
2022/09/17 05:13:21;;;;;;;18.02;2.15;;;11.90;99.90;;;;;;4990931;28;25145;-77
2022/09/17 05:15:46;;;;;;;12.98;1.35;;;11.90;99.90;;;;;;4995861;28;25068;-74
2022/09/17 05:18:12;;;;;;;10.05;1.50;;;11.90;99.90;;;;;;4993627;28;25091;-75
2022/09/17 05:20:38;;;;;;;10.05;1.70;;;11.90;99.90;;;;;;4998224;28;25150;-74
2022/09/17 05:23:03;;;;;;;5.25;0.77;;;11.90;99.90;;;;;;4990638;28;25096;-75
2022/09/17 05:25:29;;;;;;;9.05;1.88;;;12.00;99.90;;;;;;4994170;28;25072;-74
2022/09/17 05:27:55;;;;;;;12.73;1.60;;;11.90;99.90;;;;;;4997944;28;25102;-75
2022/09/17 05:30:21;;;;;;;12.85;3.60;;;11.90;99.90;;;;;;4989814;28;25157;-73
2022/09/17 05:32:47;;;;;;;4.03;1.38;;;11.80;99.90;;;;;;4996358;28;25122;-75
2022/09/17 05:35:13;;;;;;;7.47;0.90;;;11.90;99.90;;;;;;4997425;28;25104;-75
2022/09/17 05:37:39;;;;;;;5.40;1.05;;;11.80;99.90;;;;;;4993464;28;25097;-74
2022/09/17 05:40:06;;;;;;;7.00;1.45;;;11.80;99.90;;;;;;4997455;28;25183;-75
2022/09/17 05:42:32;;;;;;;7.72;1.90;;;11.70;99.90;;;;;;4999831;28;25102;-74
2022/09/17 05:44:58;;;;;;;6.53;0.98;;;11.70;99.90;;;;;;5003710;28;25090;-74
2022/09/17 05:47:24;;;;;;;10.85;1.15;;;11.70;99.90;;;;;;5002359;28;25168;-74
2022/09/17 05:49:49;;;;;;;7.47;0.90;;;11.70;99.90;;;;;;5000925;28;25126;-74
2022/09/17 05:52:15;;;;;;;8.05;1.40;;;11.80;99.90;;;;;;4998421;28;25086;-75
2022/09/17 05:54:40;;;;;;;7.78;1.42;;;11.90;99.90;;;;;;5000382;28;25064;-74
2022/09/17 05:57:06;;;;;;;3.78;1.17;;;11.90;99.90;;;;;;4991907;28;25131;-74
2022/09/17 05:59:32;;;;;;;5.88;1.27;;;12.00;99.90;;;;;;4994204;28;25058;-75
2022/09/17 06:01:57;;;;;;;10.05;1.30;;;12.20;99.90;;;;;;4997980;28;25082;-77
2022/09/17 06:04:23;;;;;;;4.85;1.05;;;12.30;99.90;;;;;;4999833;28;25050;-75
2022/09/17 06:06:48;;;;;;;3.38;1.25;;;12.50;99.90;;;;;;5000918;28;25070;-75
2022/09/17 06:09:14;;;;;;;7.65;1.00;;;12.50;99.90;;;;;;4996587;28;25059;-75
2022/09/17 06:11:40;;;;;;;6.47;1.17;;;12.60;99.90;;;;;;4992815;28;25076;-74
2022/09/17 06:14:07;;;;;;;8.85;1.27;;;12.70;99.90;;;;;;4995391;28;25154;-76
2022/09/17 06:16:32;;;;;;;4.18;1.27;;;12.40;99.90;;;;;;4996208;28;25081;-75
2022/09/17 06:18:58;;;;;;;2.63;1.08;;;12.30;99.90;;;;;;5000687;28;25169;-74
2022/09/17 06:21:23;;;;;;;8.40;1.13;;;12.30;99.90;;;;;;4996064;28;25138;-75
2022/09/17 06:23:49;;;;;;;6.97;1.15;;;12.10;99.90;;;;;;4988005;28;25064;-77
2022/09/17 06:26:15;;;;;;;4.63;1.10;;;12.20;99.90;;;;;;4993921;28;25052;-76
2022/09/17 06:28:41;;;;;;;7.88;1.83;;;12.30;99.90;;;;;;4988866;28;25110;-75
2022/09/17 06:31:09;;;;;;;8.20;2.03;;;12.50;99.90;;;;;;4997215;28;25138;-75
2022/09/17 06:33:35;;;;;;;8.50;1.75;;;12.40;99.90;;;;;;4992325;28;25075;-75
2022/09/17 06:36:11;;;;;;;9.18;1.90;;;12.30;99.90;;;;;;4971437;28;25068;-75
2022/09/17 06:38:37;;;;;;;10.10;1.83;;;12.30;99.90;;;;;;4997951;28;25057;-78
2022/09/17 06:41:03;;;;;;;4.43;0.98;;;12.30;99.90;;;;;;4985270;28;25103;-79
2022/09/17 06:43:29;;;;;;;12.07;1.27;;;12.40;99.90;;;;;;4985116;28;25103;-79
2022/09/17 06:45:59;;;;;;;7.82;1.35;;;12.60;99.90;;;;;;4999494;28;25115;-78
2022/09/17 06:48:26;;;;;;;3.80;1.60;;;12.40;99.90;;;;;;4993473;28;25069;-78
2022/09/17 06:50:53;;;;;;;6.25;1.20;;;12.50;99.90;;;;;;4999892;28;25081;-79
2022/09/17 06:53:22;;;;;;;5.70;0.93;;;12.60;99.90;;;;;;5001418;28;25054;-79
2022/09/17 06:55:48;;;;;;;10.60;1.15;;;12.80;99.90;;;;;;5003557;28;25077;-80
2022/09/17 06:58:13;;;;;;;6.28;1.10;;;12.80;99.90;;;;;;4994330;28;25079;-81
2022/09/17 07:00:39;;;;;;;10.63;1.75;;;12.90;99.90;;;;;;4998064;28;25148;-80
2022/09/17 07:03:05;;;;;;;17.40;1.30;;;12.90;99.90;;;;;;5008734;28;25161;-78
2022/09/17 07:05:33;;;;;;;5.32;1.27;;;12.70;99.90;;;;;;4992878;28;25075;-79
2022/09/17 07:08:02;;;;;;;3.30;1.00;;;12.60;99.90;;;;;;4998725;28;25055;-75
2022/09/17 07:10:29;;;;;;;7.03;1.33;;;12.60;99.90;;;;;;4990283;28;25103;-70
2022/09/17 07:12:55;;;;;;;7.82;1.23;;;12.50;99.90;;;;;;4995602;28;25135;-71
2022/09/17 07:15:21;;;;;;;5.32;2.30;;;12.40;99.90;;;;;;4993512;28;25121;-71
2022/09/17 07:17:47;;;;;;;11.60;1.30;;;12.40;99.90;;;;;;4996135;28;25072;-71
2022/09/17 07:20:13;;;;;;;4.68;1.02;;;12.50;99.90;;;;;;4996049;28;25072;-72
2022/09/17 07:22:39;;;;;;;4.90;1.65;;;12.50;99.90;;;;;;4989376;28;25074;-71
2022/09/17 07:25:06;;;;;;;5.22;1.40;;;12.50;99.90;;;;;;5002438;28;25052;-72
2022/09/17 07:27:32;;;;;;;6.32;1.25;;;12.80;99.90;;;;;;4989599;28;25065;-71
2022/09/17 07:29:57;;;;;;;6.18;1.17;;;13.10;99.90;;;;;;4995179;28;25084;-72
2022/09/17 07:32:24;;;;;;;6.47;1.10;;;13.30;99.90;;;;;;4997352;28;25080;-73
2022/09/17 07:34:49;;;;;;;5.32;0.90;;;13.50;99.90;;;;;;4990437;28;25065;-74
2022/09/17 07:37:16;;;;;;;5.25;0.80;;;13.70;99.90;;;;;;4986095;28;25062;-73
2022/09/17 07:39:42;;;;;;;3.85;0.90;;;13.80;99.90;;;;;;4979093;28;25104;-76
2022/09/17 07:42:08;;;;;;;5.78;1.33;;;13.70;99.90;;;;;;4994283;28;25114;-75
2022/09/17 07:44:34;;;;;;;4.60;1.33;;;13.30;99.90;;;;;;4992884;28;25073;-75
2022/09/17 07:46:59;;;;;;;1.83;0.60;;;13.10;99.90;;;;;;4996351;28;25173;-75
2022/09/17 07:49:25;;;;;;;7.43;0.80;;;12.70;99.90;;;;;;4987645;28;25143;-78
2022/09/17 07:51:51;;;;;;;3.60;1.08;;;12.50;99.90;;;;;;4993011;28;25068;-78
2022/09/17 07:54:16;;;;;;;2.42;0.70;;;12.50;99.90;;;;;;5000266;28;25074;-78
2022/09/17 07:56:43;;;;;;;7.05;1.35;;;12.60;99.90;;;;;;5015486;28;25111;-78
2022/09/17 07:59:09;;;;;;;5.95;1.15;;;12.70;99.90;;;;;;4985464;28;25064;-77
2022/09/17 08:01:38;;;;;;;6.53;1.00;;;12.80;99.90;;;;;;5000240;28;25059;-82
2022/09/17 08:04:04;;;;;;;6.45;0.65;;;13.00;99.90;;;;;;4990655;28;25109;-78
2022/09/17 08:06:29;;;;;;;7.03;1.20;;;13.10;99.90;;;;;;4974923;28;25098;-78
2022/09/17 08:08:56;;;;;;;7.80;1.33;;;13.30;99.90;;;;;;4996467;28;25128;-77
2022/09/17 08:11:24;;;;;;;14.13;1.27;;;13.50;99.90;;;;;;4992760;28;25068;-80
2022/09/17 08:13:52;;;;;;;3.45;0.95;;;13.50;99.90;;;;;;4992649;28;25070;-78
2022/09/17 08:16:19;;;;;;;8.85;1.50;;;13.70;99.90;;;;;;4988429;28;25084;-79
2022/09/17 08:18:45;;;;;;;5.35;1.23;;;13.70;99.90;;;;;;4992255;28;25182;-76
2022/09/17 08:21:12;;;;;;;2.97;0.90;;;13.90;99.90;;;;;;4976471;28;25110;-80
2022/09/17 08:23:40;;;;;;;3.22;1.25;;;14.00;99.90;;;;;;4993391;28;25136;-76
2022/09/17 08:26:10;;;;;;;5.47;1.10;;;13.90;99.90;;;;;;4989108;28;25055;-76
2022/09/17 08:28:35;;;;;;;9.27;1.42;;;13.70;99.90;;;;;;4980389;28;25057;-76
2022/09/17 08:31:03;;;;;;;5.25;1.00;;;13.80;99.90;;;;;;4989951;28;25053;-76
2022/09/17 08:33:34;;;;;;;8.40;0.98;;;13.70;99.90;;;;;;4993972;28;25066;-79
2022/09/17 08:36:00;;;;;;;5.93;0.90;;;13.80;99.90;;;;;;4983131;28;25068;-77
2022/09/17 08:38:26;;;;;;;7.75;1.17;;;14.10;99.90;;;;;;4991546;28;25078;-77
2022/09/17 08:41:13;;;;;;;4.07;1.05;;;14.10;99.90;;;;;;4993935;28;25052;-75
2022/09/17 08:43:49;;;;;;;3.22;1.20;;;14.10;99.90;;;;;;4990056;28;25056;-77
2022/09/17 08:46:15;;;;;;;7.03;1.23;;;14.40;99.90;;;;;;4992790;28;25066;-75
2022/09/17 08:48:51;;;;;;;4.18;0.70;;;14.50;99.90;;;;;;4992788;28;25055;-76
2022/09/17 08:51:28;;;;;;;2.10;0.55;;;14.60;99.90;;;;;;4989347;28;25134;-75
2022/09/17 08:54:14;;;;;;;3.38;0.57;;;14.60;99.90;;;;;;4962635;28;25150;-76
2022/09/17 08:56:43;;;;;;;5.93;0.73;;;13.90;99.90;;;;;;4989294;28;25162;-75
2022/09/17 08:59:34;;;;;;;8.77;1.13;;;13.70;99.90;;;;;;4991509;28;25090;-75
2022/09/17 09:02:28;;;;;;;4.15;0.82;;;13.30;99.90;;;;;;4994040;28;25072;-74
2022/09/17 09:05:22;;;;;;;1.40;0.40;;;13.20;99.90;;;;;;4991339;28;25167;-77
2022/09/17 09:08:13;;;;;;;2.72;0.73;;;13.30;99.90;;;;;;4991222;28;25157;-76
2022/09/17 09:10:48;;;;;;;2.50;0.50;;;13.40;99.90;;;;;;4977817;28;25083;-75
2022/09/17 09:13:17;;;;;;;2.65;0.52;;;13.40;99.90;;;;;;4990240;28;25084;-76
2022/09/17 09:15:47;;;;;;;2.13;0.88;;;13.50;99.90;;;;;;4991911;28;25157;-75
2022/09/17 09:18:24;;;;;;;7.00;0.63;;;13.80;99.90;;;;;;4990109;28;25062;-75
2022/09/17 09:20:54;;;;;;;3.30;0.45;;;14.00;99.90;;;;;;4996556;28;25097;-75
2022/09/17 09:23:35;;;;;;;2.75;0.60;;;14.30;99.90;;;;;;5001155;28;25066;-75
2022/09/17 09:26:16;;;;;;;2.55;0.88;;;14.30;99.90;;;;;;5018995;28;25171;-75
2022/09/17 09:29:04;;;;;;;2.88;0.60;;;14.40;99.90;;;;;;5013784;28;25104;-76
2022/09/17 09:31:59;;;;;;;7.03;0.80;;;14.20;99.90;;;;;;4996390;28;25057;-78
2022/09/17 09:34:27;;;;;;;3.95;0.68;;;14.00;99.90;;;;;;4993907;28;25110;-74
2022/09/17 09:37:11;;;;;;;3.13;0.77;;;14.10;99.90;;;;;;5001379;28;25064;-75
2022/09/17 09:39:38;;;;;;;7.28;1.08;;;14.30;99.90;;;;;;4994781;28;25060;-75
2022/09/17 09:42:12;;;;;;;3.15;0.60;;;14.40;99.90;;;;;;4994386;28;25071;-73
2022/09/17 09:44:38;;;;;;;5.25;1.85;;;14.50;99.90;;;;;;4997359;28;25087;-74
2022/09/17 09:47:32;;;;;;;3.58;0.80;;;14.50;99.90;;;;;;4992247;28;25090;-73
2022/09/17 09:50:31;;;;;;;5.13;1.60;;;14.70;99.90;;;;;;4993348;28;25059;-74
2022/09/17 09:53:28;;;;;;;6.43;2.15;;;14.80;99.90;;;;;;4993089;28;25133;-76
2022/09/17 09:56:09;;;;;;;2.42;0.60;;;14.80;99.90;;;;;;4988564;28;25073;-77
2022/09/17 09:58:37;;;;;;;1.33;0.60;;;15.00;99.90;;;;;;4986289;28;25131;-73
2022/09/17 10:01:12;;;;;;;5.53;1.20;;;15.10;99.90;;;;;;4985083;28;25077;-75
2022/09/17 10:03:41;;;;;;;5.50;0.57;;;14.60;99.90;;;;;;4982865;28;25080;-74
2022/09/17 10:06:10;;;;;;;1.35;0.40;;;14.30;99.90;;;;;;4986320;28;25051;-76
2022/09/17 10:08:43;;;;;;;5.68;0.75;;;13.90;99.90;;;;;;4989202;28;25054;-75
2022/09/17 10:11:12;;;;;;;3.13;0.73;;;14.00;99.90;;;;;;4975461;28;25160;-76
2022/09/17 10:13:38;;;;;;;5.10;0.52;;;14.00;99.90;;;;;;4971633;28;25104;-73
2022/09/17 10:16:25;;;;;;;1.60;0.45;;;14.10;99.90;;;;;;4981783;28;25061;-77
2022/09/17 10:19:26;;;;;;;0.95;0.50;;;14.20;99.90;;;;;;4994798;28;25146;-76
2022/09/17 10:21:52;;;;;;;3.33;0.90;;;14.10;99.90;;;;;;4987558;28;25104;-78
2022/09/17 10:24:32;;;;;;;4.05;1.00;;;14.10;99.90;;;;;;4983647;28;25100;-74
2022/09/17 10:27:12;;;;;;;4.38;0.80;;;14.30;99.90;;;;;;4971292;28;25067;-74
2022/09/17 10:29:46;;;;;;;1.90;0.90;;;14.20;99.90;;;;;;4987602;28;25073;-76
2022/09/17 10:32:16;;;;;;;9.32;0.90;;;14.20;99.90;;;;;;4961488;28;25121;-75
2022/09/17 10:35:04;;;;;;;3.22;1.20;;;14.40;99.90;;;;;;4989285;28;25067;-73
2022/09/17 10:37:45;;;;;;;5.03;1.05;;;14.70;99.90;;;;;;4987536;28;25088;-74
2022/09/17 10:40:17;;;;;;;9.05;1.08;;;14.90;99.90;;;;;;4968362;28;25055;-74
2022/09/17 10:42:47;;;;;;;2.72;0.93;;;14.80;99.90;;;;;;4994594;28;25116;-74
2022/09/17 10:45:28;;;;;;;5.10;1.23;;;14.50;99.90;;;;;;4995072;28;25107;-77
2022/09/17 10:47:56;;;;;;;6.20;1.20;;;14.30;99.90;;;;;;4987701;28;25069;-73
2022/09/17 10:50:34;;;;;;;14.93;1.70;;;14.10;99.90;;;;;;5004273;28;25053;-76
2022/09/17 10:53:13;;;;;;;8.02;1.65;;;14.10;99.90;;;;;;4996900;28;25106;-74
2022/09/17 10:55:47;;;;;;;4.15;0.98;;;14.20;99.90;;;;;;5002083;28;25108;-74
2022/09/17 10:58:22;;;;;;;7.38;0.90;;;14.20;99.90;;;;;;5006637;28;25089;-76
2022/09/17 11:00:54;;;;;;;4.45;1.20;;;13.90;99.90;;;;;;4992451;28;25077;-77
2022/09/17 11:03:50;;;;;;;10.63;1.63;;;13.90;99.90;;;;;;4991936;28;25085;-75
2022/09/17 11:06:32;;;;;;;6.90;1.10;;;14.00;99.90;;;;;;4978387;28;25082;-77
2022/09/17 11:09:03;;;;;;;8.95;1.63;;;14.10;99.90;;;;;;4994687;28;25053;-75
2022/09/17 11:11:56;;;;;;;4.25;1.38;;;14.30;99.90;;;;;;4993912;28;25101;-75
2022/09/17 11:14:22;;;;;;;;;;;14.40;99.90;;;;;;4994547;28;29052;-73
2022/09/17 11:17:19;;;;;;;5.15;2.35;;;14.70;99.90;;;;;;4999293;28;25055;-77
2022/09/17 11:20:15;;;;;;;9.50;1.92;;;14.80;99.90;;;;;;4990679;28;25092;-75
2022/09/17 11:23:06;;;;;;;8.30;2.03;;;15.20;99.90;;;;;;4990759;28;25071;-74
2022/09/17 11:25:45;;;;;;;3.47;1.05;;;15.10;99.90;;;;;;4991376;28;25073;-75
2022/09/17 11:28:29;;;;;;;6.10;1.55;;;14.80;99.90;;;;;;4992669;28;25139;-75
2022/09/17 11:31:15;;;;;;;7.93;1.60;;;14.80;99.90;;;;;;4995953;28;25075;-80
2022/09/17 11:33:52;;;;;;;6.13;1.17;;;15.10;99.90;;;;;;4986614;28;25065;-75
2022/09/17 11:36:28;;;;;;;5.57;1.30;;;15.40;99.90;;;;;;5006572;28;25068;-75
2022/09/17 11:38:56;;;;;;;6.63;1.48;;;16.00;99.90;;;;;;5002019;28;25139;-76
2022/09/17 11:41:36;;;;;;;5.35;1.10;;;16.30;99.90;;;;;;4985482;28;25049;-76
2022/09/17 11:44:27;;;;;;;4.53;1.67;;;16.50;99.90;;;;;;4995893;28;25093;-76
2022/09/17 11:47:04;;;;;;;5.65;1.60;;;17.10;99.90;;;;;;5003254;28;25066;-78
2022/09/17 11:49:34;;;;;;;9.20;1.35;;;17.00;99.90;;;;;;4997118;28;25062;-76
2022/09/17 11:52:06;;;;;;;6.10;1.33;;;17.40;99.90;;;;;;5002503;28;25173;-77
2022/09/17 11:54:41;;;;;;;6.38;1.30;;;17.20;99.90;;;;;;4997317;28;25138;-75
2022/09/17 11:57:15;;;;;;;10.38;1.63;;;17.40;99.90;;;;;;4997235;28;25065;-76
2022/09/17 11:59:50;;;;;;;10.70;1.25;;;16.80;99.90;;;;;;4995235;28;25061;-77
2022/09/17 12:02:22;;;;;;;12.00;1.58;;;16.10;99.90;;;;;;4991608;28;25098;-76
2022/09/17 12:05:05;;;;;;;7.88;1.30;;;15.90;99.90;;;;;;4994698;28;25071;-76
2022/09/17 12:08:08;;;;;;;5.47;1.48;;;15.50;99.90;;;;;;4991605;28;25260;-75
2022/09/17 12:10:44;;;;;;;11.35;1.38;;;16.10;99.90;;;;;;4980344;28;25105;-73
2022/09/17 12:13:31;;;;;;;5.20;2.13;;;15.80;99.90;;;;;;4995773;28;25076;-75
2022/09/17 12:16:09;;;;;;;7.18;1.08;;;15.30;99.90;;;;;;4997232;28;25087;-75
2022/09/17 12:19:19;;;;;;;7.93;1.27;;;14.70;99.90;;;;;;5002174;28;25098;-75
2022/09/17 12:21:57;;;;;;;11.60;2.30;;;14.30;99.90;;;;;;4947195;28;25081;-75
2022/09/17 12:24:27;;;;;;;6.35;1.20;;;14.40;99.90;;;;;;4996795;28;25055;-77
2022/09/17 12:27:12;;;;;;;9.25;1.40;;;15.00;99.90;;;;;;4996551;28;25060;-77
2022/09/17 12:29:57;;;;;;;5.20;1.40;;;15.20;99.90;;;;;;5015986;28;25089;-73
2022/09/17 12:32:34;;;;;;;15.85;1.90;;;15.70;99.90;;;;;;5028865;28;25050;-76
2022/09/17 12:35:31;;;;;;;12.20;2.00;;;15.10;99.90;;;;;;5036207;28;25065;-75
2022/09/17 12:38:08;;;;;;;10.95;2.08;;;14.70;99.90;;;;;;5026762;28;25078;-76
2022/09/17 12:40:52;;;;;;;6.60;1.33;;;15.30;99.90;;;;;;5024957;28;25084;-73
2022/09/17 12:43:17;;;;;;;7.28;1.63;;;15.70;99.90;;;;;;5018312;28;25083;-76
2022/09/17 12:46:25;;;;;;;8.63;1.55;;;16.00;99.90;;;;;;5022848;28;25069;-77
2022/09/17 12:49:00;;;;;;;11.02;1.60;;;16.20;99.90;;;;;;4998151;28;25072;-75
2022/09/17 12:51:41;;;;;;;8.88;1.10;;;16.40;99.90;;;;;;5025531;28;25105;-74
2022/09/17 12:54:22;;;;;;;5.78;1.58;;;16.50;99.90;;;;;;5024833;28;25085;-75
2022/09/17 12:57:10;;;;;;;5.22;1.52;;;16.60;99.90;;;;;;5009654;28;25053;-75
2022/09/17 13:00:02;;;;;;;6.35;1.67;;;16.90;99.90;;;;;;5005298;28;25053;-76
2022/09/17 13:02:45;;;;;;;5.05;1.23;;;16.70;99.90;;;;;;4993783;28;25073;-75
2022/09/17 13:05:48;;;;;;;6.22;1.30;;;16.70;99.90;;;;;;4988247;28;25056;-75
2022/09/17 13:08:24;;;;;;;4.88;1.92;;;16.90;99.90;;;;;;5003072;28;25072;-75
2022/09/17 13:11:25;;;;;;;2.20;1.10;;;16.80;99.90;;;;;;5023590;28;25107;-75
2022/09/17 13:14:09;;;;;;;4.93;1.13;;;17.00;99.90;;;;;;5006567;28;25070;-73
2022/09/17 13:16:59;;;;;;;19.63;1.50;;;16.90;99.90;;;;;;5003789;28;25079;-72